createdAt,value
2018-05-06T00:00:56.179Z,20.70
2018-05-06T00:03:24.368Z,19.03
2018-05-06T00:05:51.933Z,21.50
2018-05-06T00:08:19.558Z,18.17
2018-05-06T00:10:47.127Z,24.27
2018-05-06T00:13:14.804Z,25.23
2018-05-06T00:15:42.401Z,16.63
2018-05-06T00:18:10.832Z,15.63
2018-05-06T00:20:38.429Z,20.33
2018-05-06T00:23:06.049Z,22.40
2018-05-06T00:25:33.620Z,21.00
2018-05-06T00:28:01.197Z,15.70
2018-05-06T00:30:28.770Z,21.67
2018-05-06T00:32:56.407Z,19.00
2018-05-06T00:35:23.974Z,18.70
2018-05-06T00:37:51.622Z,18.60
2018-05-06T00:40:19.262Z,20.10
2018-05-06T00:42:46.851Z,18.87
2018-05-06T00:45:14.459Z,22.73
2018-05-06T00:47:42.875Z,23.10
2018-05-06T00:50:10.520Z,20.70
2018-05-06T00:52:38.106Z,18.73
2018-05-06T00:55:05.671Z,19.53
2018-05-06T00:57:33.306Z,20.10
2018-05-06T01:00:00.944Z,17.23
2018-05-06T01:02:29.358Z,19.90
2018-05-06T01:04:56.964Z,20.00
2018-05-06T01:07:24.571Z,20.37
2018-05-06T01:09:52.143Z,18.27
2018-05-06T01:12:19.812Z,22.47
2018-05-06T01:14:47.450Z,19.47
2018-05-06T01:17:34.014Z,18.30
2018-05-06T01:20:01.654Z,17.83
2018-05-06T01:22:29.306Z,21.87
2018-05-06T01:24:56.933Z,23.77
2018-05-06T01:27:24.508Z,22.23
2018-05-06T01:29:52.086Z,19.70
2018-05-06T01:32:19.673Z,17.23
2018-05-06T01:34:47.267Z,21.23
2018-05-06T01:37:14.889Z,19.23
2018-05-06T01:39:42.471Z,23.33
2018-05-06T01:42:10.837Z,19.03
2018-05-06T01:44:38.421Z,18.03
2018-05-06T01:47:05.997Z,18.07
2018-05-06T01:49:33.596Z,22.37
2018-05-06T01:52:01.195Z,19.67
2018-05-06T01:54:29.627Z,19.00
2018-05-06T01:56:57.188Z,21.17
2018-05-06T01:59:24.802Z,24.13
2018-05-06T02:01:53.145Z,22.57
2018-05-06T02:04:20.737Z,18.17
2018-05-06T02:06:49.127Z,23.60
2018-05-06T02:09:16.722Z,23.10
2018-05-06T02:11:44.366Z,21.60
2018-05-06T02:14:11.961Z,19.40
2018-05-06T02:16:39.562Z,22.63
2018-05-06T02:19:07.141Z,27.07
2018-05-06T02:21:34.769Z,26.97
2018-05-06T02:24:03.142Z,20.50
2018-05-06T02:26:30.770Z,23.90
2018-05-06T02:28:58.395Z,23.93
2018-05-06T02:31:25.941Z,23.53
2018-05-06T02:33:53.551Z,20.10
2018-05-06T02:36:21.121Z,28.23
2018-05-06T02:38:48.773Z,27.13
2018-05-06T02:41:16.367Z,25.40
2018-05-06T02:43:44.714Z,22.30
2018-05-06T02:46:12.350Z,21.33
2018-05-06T02:48:39.989Z,24.90
2018-05-06T02:51:07.550Z,21.10
2018-05-06T02:53:35.149Z,26.67
2018-05-06T02:56:02.722Z,21.00
2018-05-06T02:58:30.289Z,23.57
2018-05-06T03:00:57.890Z,21.17
2018-05-06T03:03:25.450Z,23.77
2018-05-06T03:05:53.036Z,24.73
2018-05-06T03:08:20.669Z,20.47
2018-05-06T03:10:48.269Z,23.23
2018-05-06T03:13:15.862Z,26.00
2018-05-06T03:15:44.229Z,26.87
2018-05-06T03:18:11.839Z,23.30
2018-05-06T03:20:39.397Z,21.40
2018-05-06T03:23:07.014Z,20.20
2018-05-06T03:25:34.646Z,21.37
2018-05-06T03:28:02.264Z,20.93
2018-05-06T03:30:30.602Z,24.47
2018-05-06T03:32:58.233Z,22.90
2018-05-06T03:35:25.856Z,23.63
2018-05-06T03:37:54.294Z,22.00
2018-05-06T03:40:21.907Z,23.33
2018-05-06T03:42:49.517Z,22.03
2018-05-06T03:45:17.061Z,23.00
2018-05-06T03:47:44.667Z,21.60
2018-05-06T03:50:13.862Z,24.10
2018-05-06T03:52:41.489Z,21.60
2018-05-06T03:55:09.113Z,19.53
2018-05-06T03:57:48.355Z,23.13
2018-05-06T04:00:27.833Z,27.90
2018-05-06T04:02:55.721Z,23.10
2018-05-06T04:05:23.297Z,22.00
2018-05-06T04:07:51.725Z,21.10
2018-05-06T04:10:19.354Z,18.57
2018-05-06T04:12:46.958Z,21.90
2018-05-06T04:15:14.523Z,25.03
2018-05-06T04:17:42.114Z,21.80
2018-05-06T04:20:10.481Z,21.10
2018-05-06T04:22:38.874Z,22.10
2018-05-06T04:25:07.197Z,16.70
2018-05-06T04:27:34.856Z,21.23
2018-05-06T04:30:02.442Z,21.17
2018-05-06T04:32:30.034Z,17.63
2018-05-06T04:34:58.433Z,18.40
2018-05-06T04:40:31.057Z,21.20
2018-05-06T04:42:58.644Z,23.60
2018-05-06T04:45:26.238Z,19.23
2018-05-06T04:47:53.803Z,16.97
2018-05-06T04:50:21.415Z,18.00
2018-05-06T04:52:49.069Z,16.83
2018-05-06T04:55:16.713Z,22.73
2018-05-06T04:57:44.306Z,15.87
2018-05-06T05:00:11.881Z,16.43
2018-05-06T05:02:40.249Z,14.83
2018-05-06T05:05:08.589Z,16.27
2018-05-06T05:07:36.202Z,18.83
2018-05-06T05:16:03.749Z,14.13
2018-05-06T05:18:31.328Z,14.67
2018-05-06T05:32:38.058Z,16.37
2018-05-06T05:35:05.647Z,21.10
2018-05-06T05:37:33.259Z,14.00
2018-05-06T05:40:00.887Z,12.13
2018-05-06T05:42:29.264Z,11.53
2018-05-06T05:48:07.505Z,14.80
2018-05-06T05:53:49.707Z,14.80
2018-05-06T05:56:17.345Z,14.20
2018-05-06T05:58:50.446Z,12.43
2018-05-06T06:07:17.462Z,15.50
2018-05-06T06:09:45.819Z,12.17
2018-05-06T06:12:13.403Z,14.00
2018-05-06T06:14:41.752Z,12.40
2018-05-06T06:17:28.088Z,10.20
2018-05-06T06:19:55.717Z,12.47
2018-05-06T06:22:23.297Z,11.00
2018-05-06T06:24:51.696Z,11.00
2018-05-06T06:27:19.335Z,14.87
2018-05-06T06:50:10.844Z,10.20
2018-05-06T06:52:38.418Z,14.07
2018-05-06T06:55:05.989Z,15.00
2018-05-06T06:57:33.671Z,13.00
2018-05-06T07:00:02.054Z,11.00
2018-05-06T07:02:30.385Z,11.00
2018-05-06T07:04:58.079Z,10.23
2018-05-06T07:07:25.664Z,13.87
2018-05-06T07:09:53.305Z,9.13
2018-05-06T07:12:21.649Z,10.63
2018-05-06T07:14:49.220Z,14.43
2018-05-06T07:17:16.791Z,10.27
2018-05-06T07:19:44.374Z,11.97
2018-05-06T07:22:11.994Z,10.80
2018-05-06T07:24:39.606Z,10.73
2018-05-06T07:27:07.217Z,11.37
2018-05-06T07:29:34.772Z,14.77
2018-05-06T07:32:02.366Z,11.87
2018-05-06T07:37:43.771Z,10.10
2018-05-06T07:40:12.092Z,9.27
2018-05-06T07:42:39.756Z,11.93
2018-05-06T07:45:07.359Z,12.10
2018-05-06T07:47:34.981Z,12.03
2018-05-06T07:50:02.538Z,8.63
2018-05-06T07:52:30.149Z,9.53
2018-05-06T07:54:58.488Z,15.03
2018-05-06T07:57:26.055Z,11.70
2018-05-06T07:59:53.629Z,10.47
2018-05-06T08:02:21.200Z,9.70
2018-05-06T08:04:49.609Z,9.87
2018-05-06T08:07:17.259Z,17.60
2018-05-06T08:09:45.577Z,9.80
2018-05-06T08:12:13.218Z,8.37
2018-05-06T08:14:40.779Z,15.67
2018-05-06T08:17:08.341Z,11.83
2018-05-06T08:19:35.996Z,11.17
2018-05-06T08:22:03.636Z,10.47
2018-05-06T08:24:31.995Z,12.40
2018-05-06T08:26:59.566Z,8.80
2018-05-06T08:29:27.929Z,9.27
2018-05-06T08:31:55.562Z,7.40
2018-05-06T08:34:23.208Z,7.70
2018-05-06T08:36:50.841Z,6.47
2018-05-06T08:39:18.412Z,8.77
2018-05-06T08:41:46.056Z,8.10
2018-05-06T08:44:14.450Z,6.90
2018-05-06T08:46:42.013Z,5.90
2018-05-06T08:49:09.598Z,8.60
2018-05-06T08:51:37.198Z,7.57
2018-05-06T08:54:04.793Z,5.87
2018-05-06T08:56:32.440Z,6.73
2018-05-06T08:59:00.013Z,6.90
2018-05-06T09:01:27.615Z,5.73
2018-05-06T09:03:55.218Z,5.87
2018-05-06T09:06:23.561Z,10.80
2018-05-06T09:08:51.181Z,6.10
2018-05-06T09:11:18.718Z,8.73
2018-05-06T09:13:46.325Z,10.60
2018-05-06T09:16:13.943Z,8.90
2018-05-06T09:24:31.996Z,5.40
2018-05-06T09:27:00.426Z,12.63
2018-05-06T09:29:28.030Z,6.63
2018-05-06T09:31:55.593Z,5.43
2018-05-06T09:34:24.011Z,12.13
2018-05-06T09:36:52.333Z,6.73
2018-05-06T09:39:19.912Z,7.10
2018-05-06T09:41:48.315Z,9.10
2018-05-06T09:44:15.924Z,10.20
2018-05-06T09:46:43.504Z,7.30
2018-05-06T09:49:11.108Z,6.27
2018-05-06T09:51:38.705Z,7.40
2018-05-06T09:54:06.313Z,10.40
2018-05-06T09:56:33.861Z,7.43
2018-05-06T09:59:02.274Z,9.03
2018-05-06T10:01:29.863Z,9.40
2018-05-06T10:03:57.466Z,9.83
2018-05-06T10:06:25.061Z,7.50
2018-05-06T10:08:52.671Z,7.23
2018-05-06T10:11:21.053Z,7.60
2018-05-06T10:13:49.438Z,9.73
2018-05-06T10:16:17.794Z,11.50
2018-05-06T10:18:45.451Z,7.67
2018-05-06T10:21:13.021Z,7.67
2018-05-06T10:23:40.601Z,11.73
2018-05-06T10:26:08.286Z,8.10
2018-05-06T10:28:36.589Z,7.63
2018-05-06T10:31:04.192Z,9.53
2018-05-06T10:33:32.583Z,6.73
2018-05-06T10:36:00.162Z,10.77
2018-05-06T10:38:27.794Z,6.37
2018-05-06T10:40:55.315Z,6.90
2018-05-06T10:43:22.878Z,6.27
2018-05-06T10:45:50.514Z,6.03
2018-05-06T10:48:18.131Z,13.60
2018-05-06T10:50:46.529Z,6.53
2018-05-06T10:53:15.241Z,9.70
2018-05-06T10:55:42.830Z,8.20
2018-05-06T10:58:10.415Z,10.47
2018-05-06T11:00:38.767Z,6.80
2018-05-06T11:03:06.391Z,9.30
2018-05-06T11:05:33.987Z,5.57
2018-05-06T11:08:01.552Z,7.63
2018-05-06T11:10:29.199Z,10.80
2018-05-06T11:12:56.744Z,7.93
2018-05-06T11:15:24.374Z,7.63
2018-05-06T11:17:51.981Z,9.40
2018-05-06T11:20:19.538Z,8.20
2018-05-06T11:22:47.129Z,7.97
2018-05-06T11:25:15.474Z,8.50
2018-05-06T11:27:43.070Z,5.50
2018-05-06T11:30:10.667Z,7.30
2018-05-06T11:32:38.247Z,7.30
2018-05-06T11:35:05.830Z,6.00
2018-05-06T11:37:33.408Z,5.43
2018-05-06T11:40:01.751Z,6.10
2018-05-06T11:42:29.334Z,7.97
2018-05-06T11:44:56.913Z,5.57
2018-05-06T11:47:25.251Z,7.33
2018-05-06T11:49:52.790Z,6.43
2018-05-06T11:52:21.161Z,4.83
2018-05-06T11:54:48.790Z,4.90
2018-05-06T11:57:17.163Z,6.67
2018-05-06T11:59:45.486Z,5.50
2018-05-06T12:02:13.078Z,5.63
2018-05-06T12:04:40.696Z,5.10
2018-05-06T12:07:09.084Z,8.00
2018-05-06T12:09:36.744Z,7.97
2018-05-06T12:12:04.351Z,5.10
2018-05-06T12:14:31.959Z,6.60
2018-05-06T12:16:59.564Z,5.60
2018-05-06T12:19:27.132Z,6.07
2018-05-06T12:21:55.510Z,5.47
2018-05-06T12:24:23.937Z,7.07
2018-05-06T12:26:51.533Z,7.40
2018-05-06T12:29:19.115Z,8.13
2018-05-06T12:31:47.443Z,7.70
2018-05-06T12:34:15.034Z,5.97
2018-05-06T12:36:42.652Z,9.63
2018-05-06T12:39:10.195Z,4.40
2018-05-06T12:41:37.768Z,8.30
2018-05-06T12:44:05.323Z,8.20
2018-05-06T12:46:32.898Z,6.77
2018-05-06T12:49:00.487Z,6.67
2018-05-06T12:51:28.058Z,6.13
2018-05-06T12:53:55.603Z,5.00
2018-05-06T12:56:23.252Z,4.60
2018-05-06T12:58:50.822Z,6.63
2018-05-06T13:01:18.425Z,5.77
2018-05-06T13:03:46.050Z,6.63
2018-05-06T13:06:13.593Z,7.63
2018-05-06T13:08:41.260Z,6.73
2018-05-06T13:11:09.541Z,6.53
2018-05-06T13:13:37.140Z,6.27
2018-05-06T13:16:04.709Z,6.60
2018-05-06T13:18:32.302Z,7.40
2018-05-06T13:20:59.858Z,8.43
2018-05-06T13:23:27.412Z,7.60
2018-05-06T13:25:55.037Z,5.80
2018-05-06T13:28:23.382Z,5.03
2018-05-06T13:30:51.017Z,5.40
2018-05-06T13:33:18.586Z,8.23
2018-05-06T13:36:00.770Z,3.90
2018-05-06T13:38:28.361Z,6.20
2018-05-06T13:49:49.288Z,6.00
2018-05-06T13:52:23.130Z,5.13
2018-05-06T13:54:50.694Z,7.47
2018-05-06T13:57:18.283Z,11.67
2018-05-06T13:59:46.669Z,8.07
2018-05-06T14:02:15.064Z,3.83
2018-05-06T14:04:42.670Z,7.50
2018-05-06T14:07:10.280Z,6.83
2018-05-06T14:09:45.686Z,6.20
2018-05-06T14:12:13.240Z,3.70
2018-05-06T14:14:40.804Z,5.67
2018-05-06T14:17:08.414Z,13.83
2018-05-06T14:19:50.532Z,4.20
2018-05-06T14:22:18.135Z,6.70
2018-05-06T14:24:46.491Z,5.37
2018-05-06T14:27:14.079Z,7.17
2018-05-06T14:29:42.429Z,7.10
2018-05-06T14:35:20.943Z,6.17
2018-05-06T14:37:48.497Z,6.30
2018-05-06T14:40:16.105Z,5.17
2018-05-06T14:42:43.738Z,6.37
2018-05-06T14:45:11.342Z,5.00
2018-05-06T14:47:51.464Z,5.77
2018-05-06T14:50:19.101Z,6.10
2018-05-06T14:52:50.637Z,5.00
2018-05-06T14:55:29.345Z,5.47
2018-05-06T14:57:56.924Z,4.13
2018-05-06T15:00:32.122Z,5.73
2018-05-06T15:03:02.421Z,9.97
2018-05-06T15:05:29.988Z,5.10
2018-05-06T15:07:57.577Z,7.83
2018-05-06T15:10:25.334Z,4.70
2018-05-06T15:12:52.812Z,6.33
2018-05-06T15:15:25.804Z,5.53
2018-05-06T15:17:53.416Z,6.70
2018-05-06T15:20:21.055Z,11.90
2018-05-06T15:22:49.067Z,5.73
2018-05-06T15:25:24.853Z,9.30
2018-05-06T15:27:52.426Z,8.20
2018-05-06T15:30:20.034Z,6.30
2018-05-06T15:32:48.382Z,8.40
2018-05-06T15:35:16.013Z,4.70
2018-05-06T15:37:43.626Z,7.60
2018-05-06T15:40:12.000Z,11.67
2018-05-06T15:42:39.588Z,6.53
2018-05-06T15:45:07.213Z,8.03
2018-05-06T15:47:34.805Z,6.20
2018-05-06T15:50:02.387Z,4.33
2018-05-06T15:52:29.992Z,6.83
2018-05-06T15:54:57.604Z,3.90
2018-05-06T15:57:25.173Z,4.97
2018-05-06T15:59:52.752Z,3.80
2018-05-06T16:02:50.907Z,3.73
2018-05-06T16:05:18.454Z,7.53
2018-05-06T16:07:46.072Z,6.10
2018-05-06T16:10:13.649Z,6.37
2018-05-06T16:12:42.076Z,5.00
2018-05-06T16:15:09.683Z,6.77
2018-05-06T16:17:38.145Z,6.70
2018-05-06T16:20:05.718Z,7.03
2018-05-06T16:22:34.143Z,6.60
2018-05-06T16:25:01.791Z,5.93
2018-05-06T16:27:29.414Z,5.37
2018-05-06T16:29:57.081Z,6.87
2018-05-06T16:32:24.680Z,9.67
2018-05-06T16:37:49.236Z,4.73
2018-05-06T16:40:16.842Z,4.20
2018-05-06T16:42:44.403Z,4.47
2018-05-06T16:45:12.024Z,3.13
2018-05-06T16:47:39.631Z,5.43
2018-05-06T16:50:07.191Z,3.83
2018-05-06T16:52:34.776Z,6.50
2018-05-06T16:55:02.358Z,7.10
2018-05-06T16:57:29.954Z,7.33
2018-05-06T16:59:57.539Z,9.87
2018-05-06T17:02:25.190Z,6.20
2018-05-06T17:04:52.752Z,9.40
2018-05-06T17:07:20.383Z,9.03
2018-05-06T17:15:51.330Z,7.53
2018-05-06T17:18:18.954Z,5.40
2018-05-06T17:20:46.500Z,3.97
2018-05-06T17:23:14.092Z,4.93
2018-05-06T17:25:44.962Z,7.53
2018-05-06T17:28:16.808Z,11.73
2018-05-06T17:30:51.387Z,8.33
2018-05-06T17:33:29.398Z,8.70
2018-05-06T17:36:09.850Z,4.13
2018-05-06T17:38:42.262Z,6.10
2018-05-06T17:41:10.862Z,5.07
2018-05-06T17:43:38.485Z,8.97
2018-05-06T17:46:09.902Z,7.57
2018-05-06T17:48:38.363Z,5.33
2018-05-06T17:54:02.175Z,9.37
2018-05-06T17:56:30.504Z,7.30
2018-05-06T18:08:00.344Z,3.93
2018-05-06T18:10:27.939Z,5.00
2018-05-06T18:12:55.522Z,7.93
2018-05-06T18:15:23.110Z,7.90
2018-05-06T18:17:50.698Z,5.13
2018-05-06T18:20:18.369Z,7.20
2018-05-06T18:22:46.048Z,7.33
2018-05-06T18:25:13.620Z,4.87
2018-05-06T18:27:41.208Z,6.90
2018-05-06T18:30:09.952Z,6.10
2018-05-06T18:32:37.551Z,5.10
2018-05-06T18:35:05.904Z,6.47
2018-05-06T18:40:35.478Z,4.77
2018-05-06T18:43:03.066Z,4.03
2018-05-06T18:45:30.661Z,6.50
2018-05-06T18:47:58.258Z,9.60
2018-05-06T18:50:25.877Z,5.13
2018-05-06T18:52:53.430Z,6.17
2018-05-06T18:55:21.034Z,5.00
2018-05-06T18:58:10.107Z,7.90
2018-05-06T19:00:37.740Z,3.40
2018-05-06T19:03:06.202Z,4.53
2018-05-06T19:05:33.820Z,5.93
2018-05-06T19:08:01.475Z,5.13
2018-05-06T19:10:29.070Z,5.67
2018-05-06T19:12:56.666Z,9.23
2018-05-06T19:15:25.049Z,6.00
2018-05-06T19:17:53.370Z,4.40
2018-05-06T19:20:34.949Z,5.40
2018-05-06T19:23:02.591Z,4.73
2018-05-06T19:25:30.221Z,4.00
2018-05-06T19:27:58.527Z,5.63
2018-05-06T19:30:26.115Z,6.40
2018-05-06T19:32:53.732Z,5.47
2018-05-06T19:35:21.319Z,5.20
2018-05-06T19:37:48.977Z,5.00
2018-05-06T19:40:17.298Z,5.73
2018-05-06T19:42:44.888Z,8.57
2018-05-06T19:45:13.222Z,4.67
2018-05-06T19:56:26.395Z,4.10
2018-05-06T20:02:00.235Z,6.17
2018-05-06T20:04:27.878Z,5.77
2018-05-06T20:06:55.482Z,5.97
2018-05-06T20:09:23.880Z,5.33
2018-05-06T20:11:51.453Z,7.47
2018-05-06T20:14:19.268Z,5.13
2018-05-06T20:16:46.863Z,7.37
2018-05-06T20:19:14.488Z,6.13
2018-05-06T20:21:42.160Z,4.90
2018-05-06T20:24:09.687Z,3.30
2018-05-06T20:26:37.309Z,3.90
2018-05-06T20:29:04.899Z,6.00
2018-05-06T20:31:32.515Z,3.50
2018-05-06T20:34:00.903Z,6.50
2018-05-06T20:36:28.509Z,8.73
2018-05-06T20:38:56.074Z,5.83
2018-05-06T20:41:23.695Z,4.70
2018-05-06T20:43:51.318Z,4.30
2018-05-06T20:46:18.938Z,5.20
2018-05-06T20:48:46.572Z,5.90
2018-05-06T20:51:14.201Z,4.57
2018-05-06T20:53:41.789Z,4.47
2018-05-06T20:56:09.382Z,4.23
2018-05-06T20:58:37.002Z,3.30
2018-05-06T21:01:05.333Z,3.90
2018-05-06T21:03:32.930Z,7.23
2018-05-06T21:06:01.328Z,4.03
2018-05-06T21:08:28.973Z,5.37
2018-05-06T21:10:57.333Z,5.00
2018-05-06T21:13:24.938Z,4.00
2018-05-06T21:15:52.585Z,3.73
2018-05-06T21:18:20.176Z,4.10
2018-05-06T21:20:47.792Z,6.73
2018-05-06T21:23:16.130Z,4.93
2018-05-06T21:25:43.721Z,7.60
2018-05-06T21:28:11.398Z,2.93
2018-05-06T21:30:39.036Z,6.80
2018-05-06T21:33:06.632Z,4.17
2018-05-06T21:35:34.232Z,7.63
2018-05-06T21:38:01.785Z,4.30
2018-05-06T21:40:29.395Z,4.87
2018-05-06T21:42:57.793Z,3.30
2018-05-06T21:45:25.400Z,4.17
2018-05-06T21:47:53.044Z,3.93
2018-05-06T21:50:20.728Z,4.00
2018-05-06T21:52:48.260Z,4.60
2018-05-06T21:55:15.881Z,4.97
2018-05-06T21:57:44.227Z,4.23
2018-05-06T22:00:11.805Z,3.77
2018-05-06T22:02:39.363Z,5.13
2018-05-06T22:05:07.700Z,3.20
2018-05-06T22:07:35.592Z,5.87
2018-05-06T22:10:03.195Z,4.10
2018-05-06T22:12:30.846Z,3.07
2018-05-06T22:14:59.195Z,3.40
2018-05-06T22:17:26.801Z,4.07
2018-05-06T22:19:54.433Z,3.07
2018-05-06T22:22:22.835Z,3.80
2018-05-06T22:24:50.417Z,2.53
2018-05-06T22:27:18.024Z,3.03
2018-05-06T22:29:45.633Z,3.00
2018-05-06T22:32:13.224Z,4.60
2018-05-06T22:34:40.806Z,4.30
2018-05-06T22:37:08.425Z,3.60
2018-05-06T22:39:36.037Z,3.63
2018-05-06T22:42:04.435Z,4.67
2018-05-06T22:44:32.030Z,3.57
2018-05-06T22:47:06.661Z,3.80
2018-05-06T22:49:34.294Z,3.70
2018-05-06T22:52:01.853Z,3.03
2018-05-06T22:54:29.417Z,3.33
2018-05-06T22:56:57.013Z,3.70
2018-05-06T22:59:24.654Z,3.20
2018-05-06T23:01:52.235Z,5.47
2018-05-06T23:04:19.940Z,4.13
2018-05-06T23:06:47.458Z,5.03
2018-05-06T23:09:15.103Z,3.97
2018-05-06T23:11:42.732Z,5.50
2018-05-06T23:14:10.329Z,4.70
2018-05-06T23:16:37.977Z,2.93
2018-05-06T23:19:05.601Z,6.53
2018-05-06T23:21:33.967Z,5.03
2018-05-06T23:24:02.307Z,3.37
2018-05-06T23:26:29.961Z,2.90
2018-05-06T23:28:57.486Z,3.80
2018-05-06T23:31:25.111Z,3.97
2018-05-06T23:33:53.497Z,4.70
2018-05-06T23:36:21.149Z,3.80
2018-05-06T23:38:48.792Z,5.93
2018-05-06T23:41:16.378Z,8.33
2018-05-06T23:43:44.816Z,3.10
2018-05-06T23:46:12.370Z,4.30
2018-05-06T23:48:39.973Z,5.43
2018-05-06T23:51:08.345Z,3.90
2018-05-06T23:53:35.945Z,3.33
2018-05-06T23:56:03.509Z,6.43
2018-05-06T23:58:31.127Z,6.80
